sensor_id;sensor_type;location;lat;lon;timestamp;temperature;humidity
3602;DHT22;1815;50.950;6.920;2023-12-20T00:01:01;10.30;99.90
3602;DHT22;1815;50.950;6.920;2023-12-20T00:03:26;10.30;99.90
3602;DHT22;1815;50.950;6.920;2023-12-20T00:05:52;10.30;99.90
3602;DHT22;1815;50.950;6.920;2023-12-20T00:08:18;10.30;99.90
3602;DHT22;1815;50.950;6.920;2023-12-20T00:10:44;10.30;99.90
3602;DHT22;1815;50.950;6.920;2023-12-20T00:13:10;10.30;99.90
3602;DHT22;1815;50.950;6.920;2023-12-20T00:15:36;10.30;99.90
3602;DHT22;1815;50.950;6.920;2023-12-20T00:18:02;10.30;99.90
3602;DHT22;1815;50.950;6.920;2023-12-20T00:20:28;10.30;99.90
3602;DHT22;1815;50.950;6.920;2023-12-20T00:22:57;10.30;99.90
3602;DHT22;1815;50.950;6.920;2023-12-20T00:25:24;10.30;99.90
3602;DHT22;1815;50.950;6.920;2023-12-20T00:27:49;10.30;99.90
3602;DHT22;1815;50.950;6.920;2023-12-20T00:30:15;10.30;99.90
3602;DHT22;1815;50.950;6.920;2023-12-20T00:32:41;10.30;99.90
3602;DHT22;1815;50.950;6.920;2023-12-20T00:35:14;10.30;99.90
3602;DHT22;1815;50.950;6.920;2023-12-20T00:37:40;10.20;99.90
3602;DHT22;1815;50.950;6.920;2023-12-20T00:40:06;10.20;99.90
3602;DHT22;1815;50.950;6.920;2023-12-20T00:42:33;10.20;99.90
3602;DHT22;1815;50.950;6.920;2023-12-20T00:44:59;10.20;99.90
3602;DHT22;1815;50.950;6.920;2023-12-20T00:47:25;10.20;99.90
3602;DHT22;1815;50.950;6.920;2023-12-20T00:49:51;10.20;99.90
3602;DHT22;1815;50.950;6.920;2023-12-20T00:52:18;10.10;99.90
3602;DHT22;1815;50.950;6.920;2023-12-20T00:54:44;10.10;99.90
3602;DHT22;1815;50.950;6.920;2023-12-20T00:57:10;10.10;99.90
3602;DHT22;1815;50.950;6.920;2023-12-20T00:59:36;10.10;99.90
3602;DHT22;1815;50.950;6.920;2023-12-20T01:02:02;10.00;99.90
3602;DHT22;1815;50.950;6.920;2023-12-20T01:04:27;10.00;99.90
3602;DHT22;1815;50.950;6.920;2023-12-20T01:06:53;10.00;99.90
3602;DHT22;1815;50.950;6.920;2023-12-20T01:09:19;10.00;99.90
3602;DHT22;1815;50.950;6.920;2023-12-20T01:11:45;10.00;99.90
3602;DHT22;1815;50.950;6.920;2023-12-20T01:14:13;9.90;99.90
3602;DHT22;1815;50.950;6.920;2023-12-20T01:16:39;9.90;99.90
3602;DHT22;1815;50.950;6.920;2023-12-20T01:19:04;9.90;99.90
3602;DHT22;1815;50.950;6.920;2023-12-20T01:21:30;9.80;99.90
3602;DHT22;1815;50.950;6.920;2023-12-20T01:23:56;9.70;99.90
3602;DHT22;1815;50.950;6.920;2023-12-20T01:26:21;9.70;99.90
3602;DHT22;1815;50.950;6.920;2023-12-20T01:28:47;9.60;99.90
3602;DHT22;1815;50.950;6.920;2023-12-20T01:31:13;9.60;99.90
3602;DHT22;1815;50.950;6.920;2023-12-20T01:33:38;9.60;99.90
3602;DHT22;1815;50.950;6.920;2023-12-20T01:36:04;9.50;99.90
3602;DHT22;1815;50.950;6.920;2023-12-20T01:38:30;9.50;99.90
3602;DHT22;1815;50.950;6.920;2023-12-20T01:40:55;9.50;99.90
3602;DHT22;1815;50.950;6.920;2023-12-20T01:43:21;9.50;99.90
3602;DHT22;1815;50.950;6.920;2023-12-20T01:45:47;9.50;99.90
3602;DHT22;1815;50.950;6.920;2023-12-20T01:48:15;9.50;99.90
3602;DHT22;1815;50.950;6.920;2023-12-20T01:50:42;9.50;99.90
3602;DHT22;1815;50.950;6.920;2023-12-20T01:53:10;9.50;99.90
3602;DHT22;1815;50.950;6.920;2023-12-20T01:55:39;9.50;99.90
3602;DHT22;1815;50.950;6.920;2023-12-20T01:58:06;9.50;99.90
3602;DHT22;1815;50.950;6.920;2023-12-20T02:00:33;9.60;99.90
3602;DHT22;1815;50.950;6.920;2023-12-20T02:03:02;9.60;99.90
3602;DHT22;1815;50.950;6.920;2023-12-20T02:05:33;9.60;99.90
3602;DHT22;1815;50.950;6.920;2023-12-20T02:07:59;9.50;99.90
3602;DHT22;1815;50.950;6.920;2023-12-20T02:10:25;9.40;99.90
3602;DHT22;1815;50.950;6.920;2023-12-20T02:12:51;9.40;99.90
3602;DHT22;1815;50.950;6.920;2023-12-20T02:15:17;9.30;99.90
3602;DHT22;1815;50.950;6.920;2023-12-20T02:17:44;9.20;99.90
3602;DHT22;1815;50.950;6.920;2023-12-20T02:20:10;9.10;99.90
3602;DHT22;1815;50.950;6.920;2023-12-20T02:22:36;9.00;99.90
3602;DHT22;1815;50.950;6.920;2023-12-20T02:25:02;8.90;99.90
3602;DHT22;1815;50.950;6.920;2023-12-20T02:27:28;8.80;99.90
3602;DHT22;1815;50.950;6.920;2023-12-20T02:29:54;8.70;99.90
3602;DHT22;1815;50.950;6.920;2023-12-20T02:32:21;8.70;99.90
3602;DHT22;1815;50.950;6.920;2023-12-20T02:34:49;8.60;99.90
3602;DHT22;1815;50.950;6.920;2023-12-20T02:37:15;8.60;99.90
3602;DHT22;1815;50.950;6.920;2023-12-20T02:39:41;8.50;99.90
3602;DHT22;1815;50.950;6.920;2023-12-20T02:42:07;8.50;99.90
3602;DHT22;1815;50.950;6.920;2023-12-20T02:44:32;8.50;99.90
3602;DHT22;1815;50.950;6.920;2023-12-20T02:46:59;8.40;99.90
3602;DHT22;1815;50.950;6.920;2023-12-20T02:49:25;8.40;99.90
3602;DHT22;1815;50.950;6.920;2023-12-20T02:51:50;8.40;99.90
3602;DHT22;1815;50.950;6.920;2023-12-20T02:54:16;8.40;99.90
3602;DHT22;1815;50.950;6.920;2023-12-20T02:56:42;8.30;99.90
3602;DHT22;1815;50.950;6.920;2023-12-20T02:59:08;8.30;99.90
3602;DHT22;1815;50.950;6.920;2023-12-20T03:01:42;8.30;99.90
3602;DHT22;1815;50.950;6.920;2023-12-20T03:04:08;8.40;99.90
3602;DHT22;1815;50.950;6.920;2023-12-20T03:06:34;8.40;99.90
3602;DHT22;1815;50.950;6.920;2023-12-20T03:08:59;8.40;99.90
3602;DHT22;1815;50.950;6.920;2023-12-20T03:11:28;8.40;99.90
3602;DHT22;1815;50.950;6.920;2023-12-20T03:13:55;8.40;99.90
3602;DHT22;1815;50.950;6.920;2023-12-20T03:16:20;8.40;99.90
3602;DHT22;1815;50.950;6.920;2023-12-20T03:18:46;8.50;99.90
3602;DHT22;1815;50.950;6.920;2023-12-20T03:21:12;8.50;99.90
3602;DHT22;1815;50.950;6.920;2023-12-20T03:23:38;8.50;99.90
3602;DHT22;1815;50.950;6.920;2023-12-20T03:26:07;8.60;99.90
3602;DHT22;1815;50.950;6.920;2023-12-20T03:28:33;8.60;99.90
3602;DHT22;1815;50.950;6.920;2023-12-20T03:30:59;8.60;99.90
3602;DHT22;1815;50.950;6.920;2023-12-20T03:33:24;8.60;99.90
3602;DHT22;1815;50.950;6.920;2023-12-20T03:35:50;8.60;99.90
3602;DHT22;1815;50.950;6.920;2023-12-20T03:38:16;8.60;99.90
3602;DHT22;1815;50.950;6.920;2023-12-20T03:40:41;8.70;99.90
3602;DHT22;1815;50.950;6.920;2023-12-20T03:43:07;8.70;99.90
3602;DHT22;1815;50.950;6.920;2023-12-20T03:45:33;8.70;99.90
3602;DHT22;1815;50.950;6.920;2023-12-20T03:47:59;8.70;99.90
3602;DHT22;1815;50.950;6.920;2023-12-20T03:50:25;8.70;99.90
3602;DHT22;1815;50.950;6.920;2023-12-20T03:52:51;8.80;99.90
3602;DHT22;1815;50.950;6.920;2023-12-20T03:55:17;8.80;99.90
3602;DHT22;1815;50.950;6.920;2023-12-20T03:57:43;8.80;99.90
3602;DHT22;1815;50.950;6.920;2023-12-20T04:00:09;8.80;99.90
3602;DHT22;1815;50.950;6.920;2023-12-20T04:02:38;8.80;99.90
3602;DHT22;1815;50.950;6.920;2023-12-20T04:05:04;8.80;99.90
3602;DHT22;1815;50.950;6.920;2023-12-20T04:07:30;8.80;99.90
3602;DHT22;1815;50.950;6.920;2023-12-20T04:09:56;8.80;99.90
3602;DHT22;1815;50.950;6.920;2023-12-20T04:12:22;8.80;99.90
3602;DHT22;1815;50.950;6.920;2023-12-20T04:14:48;8.80;99.90
3602;DHT22;1815;50.950;6.920;2023-12-20T04:17:15;8.70;99.90
3602;DHT22;1815;50.950;6.920;2023-12-20T04:19:41;8.80;99.90
3602;DHT22;1815;50.950;6.920;2023-12-20T04:22:07;8.70;99.90
3602;DHT22;1815;50.950;6.920;2023-12-20T04:24:33;8.70;99.90
3602;DHT22;1815;50.950;6.920;2023-12-20T04:26:58;8.70;99.90
3602;DHT22;1815;50.950;6.920;2023-12-20T04:29:24;8.70;99.90
3602;DHT22;1815;50.950;6.920;2023-12-20T04:31:50;8.70;99.90
3602;DHT22;1815;50.950;6.920;2023-12-20T04:34:17;8.70;99.90
3602;DHT22;1815;50.950;6.920;2023-12-20T04:36:43;8.80;99.90
3602;DHT22;1815;50.950;6.920;2023-12-20T04:39:10;8.80;99.90
3602;DHT22;1815;50.950;6.920;2023-12-20T04:41:35;8.70;99.90
3602;DHT22;1815;50.950;6.920;2023-12-20T04:44:01;8.70;99.90
3602;DHT22;1815;50.950;6.920;2023-12-20T04:46:27;8.70;99.90
3602;DHT22;1815;50.950;6.920;2023-12-20T04:48:53;8.70;99.90
3602;DHT22;1815;50.950;6.920;2023-12-20T04:51:19;8.60;99.90
3602;DHT22;1815;50.950;6.920;2023-12-20T04:53:44;8.60;99.90
3602;DHT22;1815;50.950;6.920;2023-12-20T04:56:10;8.60;99.90
3602;DHT22;1815;50.950;6.920;2023-12-20T04:58:36;8.60;99.90
3602;DHT22;1815;50.950;6.920;2023-12-20T05:01:02;8.60;99.90
3602;DHT22;1815;50.950;6.920;2023-12-20T05:03:28;8.60;99.90
3602;DHT22;1815;50.950;6.920;2023-12-20T05:05:54;8.60;99.90
3602;DHT22;1815;50.950;6.920;2023-12-20T05:08:20;8.60;99.90
3602;DHT22;1815;50.950;6.920;2023-12-20T05:10:45;8.60;99.90
3602;DHT22;1815;50.950;6.920;2023-12-20T05:13:11;8.60;99.90
3602;DHT22;1815;50.950;6.920;2023-12-20T05:15:37;8.60;99.90
3602;DHT22;1815;50.950;6.920;2023-12-20T05:18:03;8.50;99.90
3602;DHT22;1815;50.950;6.920;2023-12-20T05:20:28;8.40;99.90
3602;DHT22;1815;50.950;6.920;2023-12-20T05:22:54;8.40;99.90
3602;DHT22;1815;50.950;6.920;2023-12-20T05:25:20;8.40;99.90
3602;DHT22;1815;50.950;6.920;2023-12-20T05:27:45;8.40;99.90
3602;DHT22;1815;50.950;6.920;2023-12-20T05:30:11;8.30;99.90
3602;DHT22;1815;50.950;6.920;2023-12-20T05:32:37;8.40;99.90
3602;DHT22;1815;50.950;6.920;2023-12-20T05:35:03;8.40;99.90
3602;DHT22;1815;50.950;6.920;2023-12-20T05:37:28;8.40;99.90
3602;DHT22;1815;50.950;6.920;2023-12-20T05:39:54;8.40;99.90
3602;DHT22;1815;50.950;6.920;2023-12-20T05:42:20;8.40;99.90
3602;DHT22;1815;50.950;6.920;2023-12-20T05:44:45;8.40;99.90
3602;DHT22;1815;50.950;6.920;2023-12-20T05:47:11;8.30;99.90
3602;DHT22;1815;50.950;6.920;2023-12-20T05:49:37;8.30;99.90
3602;DHT22;1815;50.950;6.920;2023-12-20T05:52:03;8.30;99.90
3602;DHT22;1815;50.950;6.920;2023-12-20T05:54:29;8.30;99.90
3602;DHT22;1815;50.950;6.920;2023-12-20T05:56:55;8.30;99.90
3602;DHT22;1815;50.950;6.920;2023-12-20T05:59:21;8.30;99.90
3602;DHT22;1815;50.950;6.920;2023-12-20T06:01:46;8.40;99.90
3602;DHT22;1815;50.950;6.920;2023-12-20T06:04:12;8.40;99.90
3602;DHT22;1815;50.950;6.920;2023-12-20T06:06:42;8.40;99.90
3602;DHT22;1815;50.950;6.920;2023-12-20T06:09:08;8.40;99.90
3602;DHT22;1815;50.950;6.920;2023-12-20T06:11:34;8.40;99.90
3602;DHT22;1815;50.950;6.920;2023-12-20T06:13:59;8.40;99.90
3602;DHT22;1815;50.950;6.920;2023-12-20T06:16:25;8.40;99.90
3602;DHT22;1815;50.950;6.920;2023-12-20T06:18:51;8.40;99.90
3602;DHT22;1815;50.950;6.920;2023-12-20T06:21:16;8.50;99.90
3602;DHT22;1815;50.950;6.920;2023-12-20T06:23:42;8.50;99.90
3602;DHT22;1815;50.950;6.920;2023-12-20T06:26:08;8.50;99.90
3602;DHT22;1815;50.950;6.920;2023-12-20T06:28:33;8.60;99.90
3602;DHT22;1815;50.950;6.920;2023-12-20T06:30:59;8.60;99.90
3602;DHT22;1815;50.950;6.920;2023-12-20T06:33:26;8.60;99.90
3602;DHT22;1815;50.950;6.920;2023-12-20T06:35:52;8.70;99.90
3602;DHT22;1815;50.950;6.920;2023-12-20T06:38:18;8.70;99.90
3602;DHT22;1815;50.950;6.920;2023-12-20T06:40:44;8.70;99.90
3602;DHT22;1815;50.950;6.920;2023-12-20T06:43:11;8.70;99.90
3602;DHT22;1815;50.950;6.920;2023-12-20T06:45:37;8.80;99.90
3602;DHT22;1815;50.950;6.920;2023-12-20T06:48:03;8.80;99.90
3602;DHT22;1815;50.950;6.920;2023-12-20T06:50:29;8.80;99.90
3602;DHT22;1815;50.950;6.920;2023-12-20T06:52:55;8.90;99.90
3602;DHT22;1815;50.950;6.920;2023-12-20T06:55:20;8.90;99.90
3602;DHT22;1815;50.950;6.920;2023-12-20T06:57:47;8.90;99.90
3602;DHT22;1815;50.950;6.920;2023-12-20T07:00:13;8.90;99.90
3602;DHT22;1815;50.950;6.920;2023-12-20T07:02:39;9.00;99.90
3602;DHT22;1815;50.950;6.920;2023-12-20T07:05:05;9.00;99.90
3602;DHT22;1815;50.950;6.920;2023-12-20T07:07:31;9.00;99.90
3602;DHT22;1815;50.950;6.920;2023-12-20T07:09:57;9.10;99.90
3602;DHT22;1815;50.950;6.920;2023-12-20T07:12:23;9.10;99.90
3602;DHT22;1815;50.950;6.920;2023-12-20T07:14:48;9.20;99.90
3602;DHT22;1815;50.950;6.920;2023-12-20T07:17:14;9.20;99.90
3602;DHT22;1815;50.950;6.920;2023-12-20T07:19:41;9.20;99.90
3602;DHT22;1815;50.950;6.920;2023-12-20T07:22:08;9.20;99.90
3602;DHT22;1815;50.950;6.920;2023-12-20T07:24:34;9.30;99.90
3602;DHT22;1815;50.950;6.920;2023-12-20T07:27:00;9.30;99.90
3602;DHT22;1815;50.950;6.920;2023-12-20T07:29:27;9.30;99.90
3602;DHT22;1815;50.950;6.920;2023-12-20T07:31:53;9.30;99.90
3602;DHT22;1815;50.950;6.920;2023-12-20T07:34:22;9.40;99.90
3602;DHT22;1815;50.950;6.920;2023-12-20T07:36:48;9.40;99.90
3602;DHT22;1815;50.950;6.920;2023-12-20T07:39:14;9.40;99.90
3602;DHT22;1815;50.950;6.920;2023-12-20T07:41:40;9.40;99.90
3602;DHT22;1815;50.950;6.920;2023-12-20T07:44:12;9.40;99.90
3602;DHT22;1815;50.950;6.920;2023-12-20T07:46:38;9.40;99.90
3602;DHT22;1815;50.950;6.920;2023-12-20T07:49:05;9.40;99.90
3602;DHT22;1815;50.950;6.920;2023-12-20T07:51:33;9.40;99.90
3602;DHT22;1815;50.950;6.920;2023-12-20T07:53:58;9.40;99.90
3602;DHT22;1815;50.950;6.920;2023-12-20T07:56:24;9.50;99.90
3602;DHT22;1815;50.950;6.920;2023-12-20T07:58:50;9.50;99.90
3602;DHT22;1815;50.950;6.920;2023-12-20T08:01:16;9.50;99.90
3602;DHT22;1815;50.950;6.920;2023-12-20T08:03:43;9.50;99.90
3602;DHT22;1815;50.950;6.920;2023-12-20T08:06:09;9.50;99.90
3602;DHT22;1815;50.950;6.920;2023-12-20T08:08:35;9.50;99.90
3602;DHT22;1815;50.950;6.920;2023-12-20T08:11:00;9.60;99.90
3602;DHT22;1815;50.950;6.920;2023-12-20T08:13:27;9.60;99.90
3602;DHT22;1815;50.950;6.920;2023-12-20T08:15:53;9.60;99.90
3602;DHT22;1815;50.950;6.920;2023-12-20T08:18:19;9.60;99.90
3602;DHT22;1815;50.950;6.920;2023-12-20T08:20:45;9.60;99.90
3602;DHT22;1815;50.950;6.920;2023-12-20T08:23:13;9.60;99.90
3602;DHT22;1815;50.950;6.920;2023-12-20T08:25:41;9.70;99.90
3602;DHT22;1815;50.950;6.920;2023-12-20T08:28:12;9.70;99.90
3602;DHT22;1815;50.950;6.920;2023-12-20T08:30:44;9.70;99.90
3602;DHT22;1815;50.950;6.920;2023-12-20T08:33:15;9.70;99.90
3602;DHT22;1815;50.950;6.920;2023-12-20T08:35:40;9.70;99.90
3602;DHT22;1815;50.950;6.920;2023-12-20T08:38:06;9.80;99.90
3602;DHT22;1815;50.950;6.920;2023-12-20T08:40:32;9.70;99.90
3602;DHT22;1815;50.950;6.920;2023-12-20T08:42:58;9.70;99.90
3602;DHT22;1815;50.950;6.920;2023-12-20T08:45:23;9.80;99.90
3602;DHT22;1815;50.950;6.920;2023-12-20T08:47:50;9.80;99.90
3602;DHT22;1815;50.950;6.920;2023-12-20T08:50:15;9.90;99.90
3602;DHT22;1815;50.950;6.920;2023-12-20T08:52:41;9.90;99.90
3602;DHT22;1815;50.950;6.920;2023-12-20T08:55:08;10.00;99.90
3602;DHT22;1815;50.950;6.920;2023-12-20T08:57:33;10.00;99.90
3602;DHT22;1815;50.950;6.920;2023-12-20T08:59:59;10.00;99.90
3602;DHT22;1815;50.950;6.920;2023-12-20T09:02:25;10.00;99.90
3602;DHT22;1815;50.950;6.920;2023-12-20T09:04:50;10.00;99.90
3602;DHT22;1815;50.950;6.920;2023-12-20T09:07:26;10.10;99.90
3602;DHT22;1815;50.950;6.920;2023-12-20T09:09:53;10.10;99.90
3602;DHT22;1815;50.950;6.920;2023-12-20T09:12:19;10.10;99.90
3602;DHT22;1815;50.950;6.920;2023-12-20T09:14:49;10.10;99.90
3602;DHT22;1815;50.950;6.920;2023-12-20T09:17:17;10.10;99.90
3602;DHT22;1815;50.950;6.920;2023-12-20T09:19:43;10.00;99.90
3602;DHT22;1815;50.950;6.920;2023-12-20T09:22:09;10.10;99.90
3602;DHT22;1815;50.950;6.920;2023-12-20T09:24:35;10.00;99.90
3602;DHT22;1815;50.950;6.920;2023-12-20T09:27:01;10.00;99.90
3602;DHT22;1815;50.950;6.920;2023-12-20T09:29:28;10.00;99.90
3602;DHT22;1815;50.950;6.920;2023-12-20T09:31:53;10.00;99.90
3602;DHT22;1815;50.950;6.920;2023-12-20T09:34:19;10.00;99.90
3602;DHT22;1815;50.950;6.920;2023-12-20T09:36:45;10.00;99.90
3602;DHT22;1815;50.950;6.920;2023-12-20T09:39:16;10.00;99.90
3602;DHT22;1815;50.950;6.920;2023-12-20T09:42:04;10.00;99.90
3602;DHT22;1815;50.950;6.920;2023-12-20T09:44:32;10.00;99.90
3602;DHT22;1815;50.950;6.920;2023-12-20T09:47:03;10.00;99.90
3602;DHT22;1815;50.950;6.920;2023-12-20T09:49:30;10.10;99.90
3602;DHT22;1815;50.950;6.920;2023-12-20T09:51:56;10.10;99.90
3602;DHT22;1815;50.950;6.920;2023-12-20T09:54:23;10.20;99.90
3602;DHT22;1815;50.950;6.920;2023-12-20T09:56:55;10.20;99.90
3602;DHT22;1815;50.950;6.920;2023-12-20T09:59:21;10.20;99.90
3602;DHT22;1815;50.950;6.920;2023-12-20T10:01:48;10.20;99.90
3602;DHT22;1815;50.950;6.920;2023-12-20T10:04:15;10.20;99.90
3602;DHT22;1815;50.950;6.920;2023-12-20T10:06:42;10.20;99.90
3602;DHT22;1815;50.950;6.920;2023-12-20T10:09:09;10.20;99.90
3602;DHT22;1815;50.950;6.920;2023-12-20T10:11:36;10.20;99.90
3602;DHT22;1815;50.950;6.920;2023-12-20T10:14:10;10.20;99.90
3602;DHT22;1815;50.950;6.920;2023-12-20T10:16:36;10.20;99.90
3602;DHT22;1815;50.950;6.920;2023-12-20T10:19:02;10.20;99.90
3602;DHT22;1815;50.950;6.920;2023-12-20T10:21:28;10.20;99.90
3602;DHT22;1815;50.950;6.920;2023-12-20T10:23:55;10.20;99.90
3602;DHT22;1815;50.950;6.920;2023-12-20T10:26:25;10.20;99.90
3602;DHT22;1815;50.950;6.920;2023-12-20T10:28:54;10.20;99.90
3602;DHT22;1815;50.950;6.920;2023-12-20T10:33:53;10.30;99.90
3602;DHT22;1815;50.950;6.920;2023-12-20T10:36:18;10.30;99.90
3602;DHT22;1815;50.950;6.920;2023-12-20T10:38:44;10.40;99.90
3602;DHT22;1815;50.950;6.920;2023-12-20T10:41:12;10.40;99.90
3602;DHT22;1815;50.950;6.920;2023-12-20T10:43:43;10.40;99.90
3602;DHT22;1815;50.950;6.920;2023-12-20T10:46:09;10.50;99.90
3602;DHT22;1815;50.950;6.920;2023-12-20T10:48:35;10.50;99.90
3602;DHT22;1815;50.950;6.920;2023-12-20T10:51:01;10.50;99.90
3602;DHT22;1815;50.950;6.920;2023-12-20T10:53:27;10.50;99.90
3602;DHT22;1815;50.950;6.920;2023-12-20T10:55:55;10.50;99.90
3602;DHT22;1815;50.950;6.920;2023-12-20T10:58:22;10.50;99.90
3602;DHT22;1815;50.950;6.920;2023-12-20T11:00:52;10.40;99.90
3602;DHT22;1815;50.950;6.920;2023-12-20T11:03:22;10.40;99.90
3602;DHT22;1815;50.950;6.920;2023-12-20T11:05:58;10.50;99.90
3602;DHT22;1815;50.950;6.920;2023-12-20T11:08:32;10.40;99.90
3602;DHT22;1815;50.950;6.920;2023-12-20T11:12:00;10.40;99.90
3602;DHT22;1815;50.950;6.920;2023-12-20T11:16:22;10.30;99.90
3602;DHT22;1815;50.950;6.920;2023-12-20T11:18:50;10.30;99.90
3602;DHT22;1815;50.950;6.920;2023-12-20T11:21:16;10.30;99.90
3602;DHT22;1815;50.950;6.920;2023-12-20T11:23:42;10.30;99.90
3602;DHT22;1815;50.950;6.920;2023-12-20T11:26:08;10.30;99.90
3602;DHT22;1815;50.950;6.920;2023-12-20T11:28:37;10.40;99.90
3602;DHT22;1815;50.950;6.920;2023-12-20T11:31:03;10.40;99.90
3602;DHT22;1815;50.950;6.920;2023-12-20T11:33:36;10.40;99.90
3602;DHT22;1815;50.950;6.920;2023-12-20T11:36:03;10.40;99.90
3602;DHT22;1815;50.950;6.920;2023-12-20T11:38:37;10.50;99.90
3602;DHT22;1815;50.950;6.920;2023-12-20T11:41:06;10.50;99.90
3602;DHT22;1815;50.950;6.920;2023-12-20T11:43:35;10.50;99.90
3602;DHT22;1815;50.950;6.920;2023-12-20T11:48:31;10.70;99.90
3602;DHT22;1815;50.950;6.920;2023-12-20T11:50:57;10.80;99.90
3602;DHT22;1815;50.950;6.920;2023-12-20T11:53:23;10.80;99.90
3602;DHT22;1815;50.950;6.920;2023-12-20T11:55:49;10.80;99.90
3602;DHT22;1815;50.950;6.920;2023-12-20T11:58:15;10.80;99.90
3602;DHT22;1815;50.950;6.920;2023-12-20T12:00:42;10.90;99.90
3602;DHT22;1815;50.950;6.920;2023-12-20T12:03:09;10.80;99.90
3602;DHT22;1815;50.950;6.920;2023-12-20T12:05:35;10.90;99.90
3602;DHT22;1815;50.950;6.920;2023-12-20T12:08:02;10.80;99.90
3602;DHT22;1815;50.950;6.920;2023-12-20T12:10:29;10.80;99.90
3602;DHT22;1815;50.950;6.920;2023-12-20T12:12:55;10.80;99.90
3602;DHT22;1815;50.950;6.920;2023-12-20T12:15:21;10.70;99.90
3602;DHT22;1815;50.950;6.920;2023-12-20T12:17:56;10.70;99.90
3602;DHT22;1815;50.950;6.920;2023-12-20T12:20:23;10.70;99.90
3602;DHT22;1815;50.950;6.920;2023-12-20T12:23:03;10.70;99.90
3602;DHT22;1815;50.950;6.920;2023-12-20T12:25:30;10.70;99.90
3602;DHT22;1815;50.950;6.920;2023-12-20T12:27:59;10.60;99.90
3602;DHT22;1815;50.950;6.920;2023-12-20T12:30:27;10.60;99.90
3602;DHT22;1815;50.950;6.920;2023-12-20T12:32:54;10.60;99.90
3602;DHT22;1815;50.950;6.920;2023-12-20T12:35:21;10.60;99.90
3602;DHT22;1815;50.950;6.920;2023-12-20T12:37:47;10.60;99.90
3602;DHT22;1815;50.950;6.920;2023-12-20T12:40:15;10.60;99.90
3602;DHT22;1815;50.950;6.920;2023-12-20T12:42:43;10.60;99.90
3602;DHT22;1815;50.950;6.920;2023-12-20T12:45:09;10.60;99.90
3602;DHT22;1815;50.950;6.920;2023-12-20T12:47:37;10.60;99.90
3602;DHT22;1815;50.950;6.920;2023-12-20T12:50:04;10.60;99.90
3602;DHT22;1815;50.950;6.920;2023-12-20T12:52:30;10.60;99.90
3602;DHT22;1815;50.950;6.920;2023-12-20T12:54:57;10.70;99.90
3602;DHT22;1815;50.950;6.920;2023-12-20T12:57:23;10.60;99.90
3602;DHT22;1815;50.950;6.920;2023-12-20T12:59:49;10.70;99.90
3602;DHT22;1815;50.950;6.920;2023-12-20T13:02:16;10.70;99.90
3602;DHT22;1815;50.950;6.920;2023-12-20T13:04:42;10.70;99.90
3602;DHT22;1815;50.950;6.920;2023-12-20T13:07:09;10.70;99.90
3602;DHT22;1815;50.950;6.920;2023-12-20T13:09:38;10.70;99.90
3602;DHT22;1815;50.950;6.920;2023-12-20T13:12:05;10.70;99.90
3602;DHT22;1815;50.950;6.920;2023-12-20T13:14:33;10.70;99.90
3602;DHT22;1815;50.950;6.920;2023-12-20T13:17:00;10.60;99.90
3602;DHT22;1815;50.950;6.920;2023-12-20T13:19:26;10.70;99.90
3602;DHT22;1815;50.950;6.920;2023-12-20T13:21:52;10.70;99.90
3602;DHT22;1815;50.950;6.920;2023-12-20T13:24:18;10.70;99.90
3602;DHT22;1815;50.950;6.920;2023-12-20T13:26:44;10.70;99.90
3602;DHT22;1815;50.950;6.920;2023-12-20T13:29:09;10.70;99.90
3602;DHT22;1815;50.950;6.920;2023-12-20T13:31:35;10.70;99.90
3602;DHT22;1815;50.950;6.920;2023-12-20T13:34:02;10.70;99.90
3602;DHT22;1815;50.950;6.920;2023-12-20T13:36:27;10.80;99.90
3602;DHT22;1815;50.950;6.920;2023-12-20T13:38:53;10.80;99.90
3602;DHT22;1815;50.950;6.920;2023-12-20T13:41:20;10.90;99.90
3602;DHT22;1815;50.950;6.920;2023-12-20T13:43:45;10.90;99.90
3602;DHT22;1815;50.950;6.920;2023-12-20T13:46:11;10.90;99.90
3602;DHT22;1815;50.950;6.920;2023-12-20T13:48:37;10.90;99.90
3602;DHT22;1815;50.950;6.920;2023-12-20T13:51:03;10.90;99.90
3602;DHT22;1815;50.950;6.920;2023-12-20T13:53:29;10.90;99.90
3602;DHT22;1815;50.950;6.920;2023-12-20T13:55:55;10.90;99.90
3602;DHT22;1815;50.950;6.920;2023-12-20T13:58:20;10.90;99.90
3602;DHT22;1815;50.950;6.920;2023-12-20T14:00:46;10.90;99.90
3602;DHT22;1815;50.950;6.920;2023-12-20T14:03:12;10.90;99.90
3602;DHT22;1815;50.950;6.920;2023-12-20T14:05:37;10.90;99.90
3602;DHT22;1815;50.950;6.920;2023-12-20T14:08:04;10.80;99.90
3602;DHT22;1815;50.950;6.920;2023-12-20T14:10:29;10.80;99.90
3602;DHT22;1815;50.950;6.920;2023-12-20T14:12:55;10.80;99.90
3602;DHT22;1815;50.950;6.920;2023-12-20T14:15:21;10.80;99.90
3602;DHT22;1815;50.950;6.920;2023-12-20T14:17:47;10.80;99.90
3602;DHT22;1815;50.950;6.920;2023-12-20T14:20:13;10.80;99.90
3602;DHT22;1815;50.950;6.920;2023-12-20T14:22:39;10.80;99.90
3602;DHT22;1815;50.950;6.920;2023-12-20T14:25:11;10.70;99.90
3602;DHT22;1815;50.950;6.920;2023-12-20T14:27:38;10.80;99.90
3602;DHT22;1815;50.950;6.920;2023-12-20T14:30:05;10.80;99.90
3602;DHT22;1815;50.950;6.920;2023-12-20T14:32:31;10.70;99.90
3602;DHT22;1815;50.950;6.920;2023-12-20T14:34:57;10.70;99.90
3602;DHT22;1815;50.950;6.920;2023-12-20T14:37:23;10.70;99.90
3602;DHT22;1815;50.950;6.920;2023-12-20T14:39:49;10.70;99.90
3602;DHT22;1815;50.950;6.920;2023-12-20T14:42:15;10.80;99.90
3602;DHT22;1815;50.950;6.920;2023-12-20T14:44:40;10.80;99.90
3602;DHT22;1815;50.950;6.920;2023-12-20T14:47:06;10.70;99.90
3602;DHT22;1815;50.950;6.920;2023-12-20T14:49:32;10.70;99.90
3602;DHT22;1815;50.950;6.920;2023-12-20T14:51:58;10.80;99.90
3602;DHT22;1815;50.950;6.920;2023-12-20T14:54:24;10.80;99.90
3602;DHT22;1815;50.950;6.920;2023-12-20T14:56:53;10.80;99.90
3602;DHT22;1815;50.950;6.920;2023-12-20T14:59:19;10.80;99.90
3602;DHT22;1815;50.950;6.920;2023-12-20T15:01:44;10.80;99.90
3602;DHT22;1815;50.950;6.920;2023-12-20T15:04:10;10.80;99.90
3602;DHT22;1815;50.950;6.920;2023-12-20T15:06:36;10.80;99.90
3602;DHT22;1815;50.950;6.920;2023-12-20T15:09:02;10.90;99.90
3602;DHT22;1815;50.950;6.920;2023-12-20T15:11:31;10.80;99.90
3602;DHT22;1815;50.950;6.920;2023-12-20T15:13:56;10.80;99.90
3602;DHT22;1815;50.950;6.920;2023-12-20T15:16:24;10.80;99.90
3602;DHT22;1815;50.950;6.920;2023-12-20T15:18:50;10.80;99.90
3602;DHT22;1815;50.950;6.920;2023-12-20T15:21:16;10.80;99.90
3602;DHT22;1815;50.950;6.920;2023-12-20T15:23:42;10.80;99.90
3602;DHT22;1815;50.950;6.920;2023-12-20T15:26:33;10.80;99.90
3602;DHT22;1815;50.950;6.920;2023-12-20T15:28:59;10.80;99.90
3602;DHT22;1815;50.950;6.920;2023-12-20T15:31:27;10.80;99.90
3602;DHT22;1815;50.950;6.920;2023-12-20T15:33:53;10.80;99.90
3602;DHT22;1815;50.950;6.920;2023-12-20T15:36:19;10.80;99.90
3602;DHT22;1815;50.950;6.920;2023-12-20T15:38:45;10.70;99.90
3602;DHT22;1815;50.950;6.920;2023-12-20T15:41:21;10.70;99.90
3602;DHT22;1815;50.950;6.920;2023-12-20T15:43:47;10.70;99.90
3602;DHT22;1815;50.950;6.920;2023-12-20T15:46:13;10.70;99.90
3602;DHT22;1815;50.950;6.920;2023-12-20T15:48:40;10.70;99.90
3602;DHT22;1815;50.950;6.920;2023-12-20T15:51:07;10.70;99.90
3602;DHT22;1815;50.950;6.920;2023-12-20T15:53:33;10.60;99.90
3602;DHT22;1815;50.950;6.920;2023-12-20T15:55:58;10.60;99.90
3602;DHT22;1815;50.950;6.920;2023-12-20T15:58:24;10.60;99.90
3602;DHT22;1815;50.950;6.920;2023-12-20T16:00:50;10.60;99.90
3602;DHT22;1815;50.950;6.920;2023-12-20T16:03:16;10.60;99.90
3602;DHT22;1815;50.950;6.920;2023-12-20T16:05:42;10.60;99.90
3602;DHT22;1815;50.950;6.920;2023-12-20T16:08:07;10.60;99.90
3602;DHT22;1815;50.950;6.920;2023-12-20T16:10:33;10.60;99.90
3602;DHT22;1815;50.950;6.920;2023-12-20T16:12:58;10.60;99.90